Terminal Aerodrome Forecast
Issued by NWS Greer, SC

Home | Current Version | Previous Version | Text Only | Print | Product List | Glossary On
Versions: 1 2 3 4 5 6 7 8 9 10 11 12 13 14 15 16 17 18 19 20 21 22 23 24
000
FTUS42 KGSP 231128 AAA
TAFAVL
TAF AMD
KAVL 231128Z 2311/2412 VRB03KT 3/4SM BR OVC002
      TEMPO 2312/2314 1/4SM FG OVC002
     FM231400 VRB03KT P6SM SCT003 BKN250
     FM231700 05004KT P6SM SCT045
     FM240000 VRB03KT P6SM SCT250
     FM240900 VRB02KT P6SM FEW002=

USA.gov is the U.S. government's official web portal to all federal, state and local government web resources and services.